Time;durP1;ratioP1;P1;durP2;ratioP2;P2;SDS_P1;SDS_P2;PMS_P1;PMS_P2;Temp;Humidity;BMP_temperature;BMP_pressure;BME280_temperature;BME280_humidity;BME280_pressure;Samples;Min_cycle;Max_cycle;Signal;HPM_P1;HPM_P2
2022/07/18 00:01:52;;;;;;;4.15;3.78;;;23.20;56.30;;;;;;5011397;28;20052;-65
2022/07/18 00:04:18;;;;;;;4.32;3.70;;;23.20;56.40;;;;;;4995138;28;20378;-65
2022/07/18 00:06:43;;;;;;;4.95;4.20;;;23.20;56.30;;;;;;5031440;28;20068;-66
2022/07/18 00:09:09;;;;;;;3.80;3.50;;;23.20;56.30;;;;;;5031191;28;20100;-65
2022/07/18 00:11:35;;;;;;;3.97;3.58;;;23.20;56.30;;;;;;5010705;28;20041;-65
2022/07/18 00:14:00;;;;;;;4.72;4.07;;;23.20;56.30;;;;;;5014559;28;20054;-66
2022/07/18 00:16:26;;;;;;;3.70;3.40;;;23.20;56.20;;;;;;5032312;28;20047;-65
2022/07/18 00:18:52;;;;;;;4.95;3.90;;;23.20;56.20;;;;;;5012595;28;20065;-65
2022/07/18 00:21:17;;;;;;;5.05;3.95;;;23.20;56.20;;;;;;5027215;28;20158;-65
2022/07/18 00:23:43;;;;;;;5.38;3.72;;;23.20;56.20;;;;;;5012250;28;20085;-65
2022/07/18 00:26:09;;;;;;;4.75;4.22;;;23.20;56.20;;;;;;5016006;28;20724;-65
2022/07/18 00:28:34;;;;;;;4.70;3.53;;;23.20;56.20;;;;;;5030074;28;20064;-66
2022/07/18 00:31:00;;;;;;;3.47;3.17;;;23.20;56.10;;;;;;5012460;28;20448;-66
2022/07/18 00:33:26;;;;;;;4.20;3.80;;;23.20;56.10;;;;;;5032542;28;20398;-65
2022/07/18 00:35:52;;;;;;;4.78;3.95;;;23.20;56.10;;;;;;5028912;28;20037;-65
2022/07/18 00:38:17;;;;;;;4.35;3.95;;;23.10;56.00;;;;;;5030359;28;20081;-65
2022/07/18 00:40:43;;;;;;;4.22;3.83;;;23.20;56.10;;;;;;5033017;28;20045;-66
2022/07/18 00:43:12;;;;;;;6.40;3.85;;;23.20;56.10;;;;;;5009761;28;20037;-66
2022/07/18 00:45:38;;;;;;;4.65;3.63;;;23.20;56.00;;;;;;5035176;28;20614;-65
2022/07/18 00:48:07;;;;;;;3.47;3.17;;;23.10;55.90;;;;;;5013828;28;20101;-65
2022/07/18 00:50:33;;;;;;;3.95;3.55;;;23.20;56.00;;;;;;4998803;28;20049;-66
2022/07/18 00:52:58;;;;;;;5.10;3.67;;;23.10;55.90;;;;;;5024668;28;20044;-65
2022/07/18 00:55:24;;;;;;;4.70;4.20;;;23.10;55.90;;;;;;5026373;28;20041;-67
2022/07/18 00:57:51;;;;;;;4.05;3.60;;;23.20;55.90;;;;;;5008092;28;20114;-65
2022/07/18 01:03:01;;;;;;;4.20;3.80;;;23.10;55.80;;;;;;5009695;28;20133;-65
2022/07/18 01:05:27;;;;;;;4.15;3.53;;;23.10;55.80;;;;;;5026347;28;20128;-65
2022/07/18 01:07:53;;;;;;;4.10;3.70;;;23.10;55.90;;;;;;5029050;28;20128;-65
2022/07/18 01:10:18;;;;;;;4.20;3.80;;;23.10;55.80;;;;;;5027219;28;20073;-65
2022/07/18 01:12:45;;;;;;;4.53;3.70;;;23.10;55.70;;;;;;5031547;28;20561;-65
2022/07/18 01:15:11;;;;;;;4.10;3.70;;;23.10;55.80;;;;;;5030011;28;20047;-66
2022/07/18 01:17:38;;;;;;;4.78;3.70;;;23.10;55.70;;;;;;5030194;28;20037;-65
2022/07/18 01:20:05;;;;;;;4.80;3.60;;;23.10;55.70;;;;;;5028880;28;20033;-66
2022/07/18 01:22:32;;;;;;;4.47;3.90;;;23.10;55.70;;;;;;5008564;28;20414;-66
2022/07/18 01:24:58;;;;;;;4.32;3.83;;;23.10;56.40;;;;;;5029496;28;20059;-65
2022/07/18 01:27:24;;;;;;;4.45;4.05;;;23.10;55.70;;;;;;5027603;28;20041;-64
2022/07/18 01:29:52;;;;;;;4.18;3.78;;;23.10;55.70;;;;;;5012112;28;20901;-64
2022/07/18 01:32:18;;;;;;;3.95;3.55;;;23.10;55.60;;;;;;5012117;28;20029;-64
2022/07/18 01:34:46;;;;;;;3.67;3.38;;;23.10;55.60;;;;;;5031137;28;20382;-65
2022/07/18 01:37:13;;;;;;;4.10;3.70;;;23.10;55.50;;;;;;5028779;28;20089;-64
2022/07/18 01:39:38;;;;;;;5.30;4.10;;;23.10;55.50;;;;;;5024920;28;20052;-64
2022/07/18 01:42:07;;;;;;;4.18;3.78;;;23.10;55.50;;;;;;5030669;28;20037;-64
2022/07/18 01:44:34;;;;;;;3.83;3.53;;;23.10;55.50;;;;;;5011581;28;20045;-64
2022/07/18 01:47:00;;;;;;;4.00;3.70;;;23.10;55.50;;;;;;5033211;28;20049;-63
2022/07/18 01:49:26;;;;;;;6.20;3.95;;;23.10;55.50;;;;;;5009616;28;20048;-64
2022/07/18 01:51:53;;;;;;;5.10;3.78;;;23.10;55.50;;;;;;5026698;28;20385;-65
2022/07/18 01:54:24;;;;;;;4.22;3.85;;;23.10;55.50;;;;;;5031771;28;20037;-64
2022/07/18 01:56:50;;;;;;;3.92;3.33;;;23.10;55.50;;;;;;5011319;28;20481;-65
2022/07/18 01:59:15;;;;;;;4.68;3.83;;;23.10;55.50;;;;;;5029333;28;20045;-63
2022/07/18 02:01:42;;;;;;;4.13;3.70;;;23.10;55.50;;;;;;5031987;28;20045;-64
2022/07/18 02:04:08;;;;;;;4.32;3.65;;;23.10;55.50;;;;;;5008958;28;20044;-65
2022/07/18 02:06:34;;;;;;;4.47;4.03;;;23.10;55.40;;;;;;5009690;28;20409;-64
2022/07/18 02:09:00;;;;;;;4.30;3.90;;;23.10;55.50;;;;;;5028542;28;20045;-64
2022/07/18 02:11:26;;;;;;;4.13;3.72;;;23.10;55.50;;;;;;5013269;28;20057;-64
2022/07/18 02:13:52;;;;;;;4.60;3.83;;;23.10;55.50;;;;;;5010908;28;20115;-64
2022/07/18 02:16:18;;;;;;;4.30;3.75;;;23.10;55.40;;;;;;5008935;28;20588;-64
2022/07/18 02:18:43;;;;;;;4.47;3.70;;;23.10;55.40;;;;;;5028875;28;20136;-64
2022/07/18 02:21:09;;;;;;;4.32;3.72;;;23.10;55.40;;;;;;5007631;28;20044;-63
2022/07/18 02:23:35;;;;;;;4.05;3.60;;;23.10;55.40;;;;;;4991634;28;20531;-64
2022/07/18 02:26:04;;;;;;;4.07;3.67;;;23.10;55.40;;;;;;5008270;28;20037;-64
2022/07/18 02:28:29;;;;;;;5.15;3.75;;;23.10;55.40;;;;;;5009626;28;20099;-64
2022/07/18 02:30:55;;;;;;;4.00;3.70;;;23.00;55.30;;;;;;5030397;28;20504;-65
2022/07/18 02:33:21;;;;;;;4.13;3.72;;;23.10;55.30;;;;;;5008606;28;20037;-65
2022/07/18 02:35:46;;;;;;;4.05;3.65;;;23.10;55.40;;;;;;5007301;28;20440;-65
2022/07/18 02:38:12;;;;;;;4.00;3.58;;;23.10;55.30;;;;;;5008944;28;20783;-65
2022/07/18 02:40:38;;;;;;;4.68;4.20;;;23.00;55.40;;;;;;5014048;28;20804;-65
2022/07/18 02:43:03;;;;;;;3.92;3.53;;;23.10;55.30;;;;;;5025216;28;20456;-64
2022/07/18 02:45:30;;;;;;;4.05;3.75;;;23.10;55.30;;;;;;5009786;28;20464;-64
2022/07/18 02:47:56;;;;;;;4.40;3.97;;;23.10;55.30;;;;;;5027706;28;20128;-64
2022/07/18 02:50:22;;;;;;;4.22;3.83;;;23.00;55.20;;;;;;5027656;28;20095;-64
2022/07/18 02:52:48;;;;;;;4.00;3.60;;;23.00;55.10;;;;;;5027661;28;20041;-64
2022/07/18 02:55:14;;;;;;;4.40;4.00;;;23.00;55.10;;;;;;5007193;28;20124;-64
2022/07/18 02:57:40;;;;;;;4.25;3.85;;;23.00;55.20;;;;;;5028900;28;20051;-64
2022/07/18 03:00:13;;;;;;;4.35;3.95;;;23.00;55.20;;;;;;5008001;28;20129;-65
2022/07/18 03:02:39;;;;;;;4.05;3.65;;;23.00;55.10;;;;;;5007773;28;20485;-64
2022/07/18 03:05:06;;;;;;;4.05;3.65;;;23.00;55.10;;;;;;5009722;28;20037;-64
2022/07/18 03:07:33;;;;;;;4.30;3.90;;;23.00;55.20;;;;;;5005184;28;20045;-65
2022/07/18 03:09:58;;;;;;;3.72;3.42;;;23.00;55.10;;;;;;4990833;28;20741;-64
2022/07/18 03:12:24;;;;;;;4.35;3.95;;;23.00;55.10;;;;;;5028880;28;20048;-64
2022/07/18 03:14:50;;;;;;;4.10;3.70;;;23.00;55.10;;;;;;5027366;28;20498;-64
2022/07/18 03:17:16;;;;;;;3.95;3.63;;;23.00;55.00;;;;;;5010175;28;20030;-64
2022/07/18 03:19:41;;;;;;;4.03;3.63;;;23.00;55.00;;;;;;4993761;28;20048;-64
2022/07/18 03:22:07;;;;;;;3.78;3.45;;;23.00;55.00;;;;;;5009175;28;20041;-65
2022/07/18 03:24:33;;;;;;;4.57;3.95;;;23.00;55.00;;;;;;5033894;28;20037;-64
2022/07/18 03:26:59;;;;;;;4.13;3.72;;;23.00;55.00;;;;;;5032461;28;20127;-64
2022/07/18 03:29:24;;;;;;;4.05;3.72;;;23.00;54.90;;;;;;5031597;28;20396;-64
2022/07/18 03:31:51;;;;;;;3.80;3.50;;;23.00;54.90;;;;;;5010934;28;20038;-64
2022/07/18 03:34:17;;;;;;;3.85;3.53;;;23.00;54.90;;;;;;5031816;28;20516;-65
2022/07/18 03:36:42;;;;;;;4.00;3.60;;;23.00;54.90;;;;;;5013999;28;20045;-64
2022/07/18 03:39:09;;;;;;;3.90;3.60;;;23.00;54.90;;;;;;5028981;28;20658;-65
2022/07/18 03:41:36;;;;;;;5.05;3.92;;;23.00;54.90;;;;;;5030880;28;20033;-64
2022/07/18 03:44:03;;;;;;;4.57;3.80;;;23.00;54.80;;;;;;5013823;28;20124;-65
2022/07/18 03:46:29;;;;;;;3.72;3.35;;;23.00;54.80;;;;;;5010454;28;20563;-64
2022/07/18 03:48:54;;;;;;;4.15;3.72;;;23.00;54.90;;;;;;5031080;28;20045;-64
2022/07/18 03:51:20;;;;;;;4.55;4.15;;;23.00;54.80;;;;;;5028984;28;20049;-64
2022/07/18 03:53:45;;;;;;;3.80;3.50;;;23.00;54.80;;;;;;5029201;28;20381;-64
2022/07/18 03:56:11;;;;;;;3.65;3.35;;;23.00;54.80;;;;;;5032251;28;20589;-65
2022/07/18 03:58:37;;;;;;;4.10;3.70;;;23.00;54.80;;;;;;5013532;28;20341;-64
2022/07/18 04:01:03;;;;;;;4.10;3.70;;;23.00;54.80;;;;;;5010649;28;20033;-64
2022/07/18 04:03:29;;;;;;;5.53;3.80;;;23.00;54.80;;;;;;5013631;28;20049;-63
2022/07/18 04:05:55;;;;;;;4.25;3.85;;;23.00;54.80;;;;;;5030541;28;20041;-64
2022/07/18 04:08:21;;;;;;;4.88;3.85;;;23.00;54.70;;;;;;5010969;28;20042;-64
2022/07/18 04:10:47;;;;;;;3.85;3.50;;;23.00;54.80;;;;;;5012035;28;20634;-65
2022/07/18 04:13:13;;;;;;;4.28;3.88;;;23.00;54.70;;;;;;5030529;28;20095;-65
2022/07/18 04:15:39;;;;;;;4.60;3.95;;;23.00;54.70;;;;;;5010719;28;20035;-65
2022/07/18 04:18:06;;;;;;;4.38;3.97;;;23.00;54.70;;;;;;5011441;28;20417;-64
2022/07/18 04:20:32;;;;;;;3.40;3.10;;;23.00;54.70;;;;;;5029385;28;20052;-65
2022/07/18 04:23:00;;;;;;;4.53;4.07;;;23.00;54.70;;;;;;5011172;28;20049;-64
2022/07/18 04:25:29;;;;;;;4.28;3.85;;;23.00;54.70;;;;;;5031855;28;20577;-64
2022/07/18 04:27:55;;;;;;;4.20;3.80;;;23.00;54.60;;;;;;5009554;28;20053;-64
2022/07/18 04:30:23;;;;;;;4.20;3.80;;;23.00;55.40;;;;;;4993236;28;20448;-65
2022/07/18 04:32:49;;;;;;;3.88;3.58;;;23.00;54.60;;;;;;5011538;28;20065;-66
2022/07/18 04:35:15;;;;;;;3.92;3.60;;;23.00;54.70;;;;;;5027052;28;20076;-65
2022/07/18 04:37:41;;;;;;;5.97;3.78;;;23.00;54.60;;;;;;5027064;28;20140;-61
2022/07/18 04:40:09;;;;;;;4.90;3.88;;;23.00;54.60;;;;;;5029138;28;20049;-62
2022/07/18 04:42:36;;;;;;;4.28;3.78;;;23.00;54.60;;;;;;5027374;28;20037;-66
2022/07/18 04:45:03;;;;;;;4.20;3.60;;;23.00;54.70;;;;;;5014217;28;20124;-67
2022/07/18 04:47:28;;;;;;;3.90;3.60;;;23.00;54.60;;;;;;5027585;28;20571;-67
2022/07/18 04:49:54;;;;;;;3.95;3.65;;;23.00;54.60;;;;;;4993100;28;20048;-66
2022/07/18 04:52:20;;;;;;;5.15;3.80;;;23.00;54.60;;;;;;5011356;28;20489;-67
2022/07/18 04:54:46;;;;;;;4.05;3.65;;;23.00;54.60;;;;;;5009440;28;20033;-66
2022/07/18 04:57:14;;;;;;;4.00;3.60;;;23.00;54.60;;;;;;4993781;28;20041;-66
2022/07/18 04:59:41;;;;;;;3.92;3.53;;;23.00;54.60;;;;;;5009906;28;20056;-66
2022/07/18 05:02:08;;;;;;;3.65;3.33;;;23.00;54.60;;;;;;5011729;28;20045;-66
2022/07/18 05:04:34;;;;;;;4.47;3.60;;;23.00;54.60;;;;;;4999905;28;20456;-65
2022/07/18 05:07:00;;;;;;;4.40;3.42;;;23.00;54.60;;;;;;5012870;28;20140;-65
2022/07/18 05:09:26;;;;;;;4.40;3.58;;;22.90;54.60;;;;;;5009077;28;20034;-65
2022/07/18 05:11:52;;;;;;;4.00;3.60;;;23.00;54.60;;;;;;5029606;28;20400;-66
2022/07/18 05:14:18;;;;;;;4.00;3.42;;;23.00;54.60;;;;;;5010340;28;20036;-65
2022/07/18 05:16:43;;;;;;;3.63;3.30;;;23.00;54.60;;;;;;5011107;28;20050;-66
2022/07/18 05:19:09;;;;;;;4.15;3.75;;;23.00;54.70;;;;;;5032175;28;20052;-66
2022/07/18 05:21:35;;;;;;;3.90;3.60;;;23.00;54.60;;;;;;5009784;28;20040;-66
2022/07/18 05:24:00;;;;;;;4.88;3.70;;;22.90;54.60;;;;;;5009464;28;20128;-66
2022/07/18 05:26:26;;;;;;;4.25;3.60;;;23.00;54.60;;;;;;5013690;28;20529;-66
2022/07/18 05:28:52;;;;;;;3.85;3.55;;;23.00;54.70;;;;;;5010621;28;20048;-66
2022/07/18 05:31:18;;;;;;;4.13;3.72;;;23.00;54.60;;;;;;5010698;28;20029;-66
2022/07/18 05:33:43;;;;;;;4.38;3.47;;;23.00;54.60;;;;;;5014268;28;20041;-66
2022/07/18 05:36:09;;;;;;;4.10;3.35;;;23.00;54.70;;;;;;4986797;28;20044;-66
2022/07/18 05:38:35;;;;;;;3.65;3.35;;;23.00;54.70;;;;;;5029503;28;20073;-66
2022/07/18 05:41:01;;;;;;;4.57;3.50;;;23.00;54.60;;;;;;4993001;28;20037;-66
2022/07/18 05:43:26;;;;;;;3.95;3.38;;;23.00;54.60;;;;;;5027279;28;20048;-66
2022/07/18 05:45:52;;;;;;;3.83;3.42;;;23.00;54.60;;;;;;5010516;28;20478;-66
2022/07/18 05:48:18;;;;;;;4.35;3.00;;;23.00;54.60;;;;;;5010237;28;20497;-66
2022/07/18 05:50:44;;;;;;;3.58;3.28;;;23.00;54.70;;;;;;5010798;28;20084;-66
2022/07/18 05:53:11;;;;;;;3.88;3.50;;;23.00;54.70;;;;;;5026135;28;20452;-66
2022/07/18 05:55:37;;;;;;;3.72;3.28;;;22.90;54.60;;;;;;4993739;28;20041;-66
2022/07/18 05:58:03;;;;;;;3.42;3.13;;;23.00;54.60;;;;;;4998147;28;20064;-66
2022/07/18 06:00:29;;;;;;;3.70;3.40;;;23.00;54.60;;;;;;5008563;28;20037;-66
2022/07/18 06:02:55;;;;;;;4.82;3.63;;;23.00;54.60;;;;;;5000393;28;20566;-66
2022/07/18 06:05:22;;;;;;;3.90;3.45;;;23.00;54.60;;;;;;5027686;28;20089;-66
2022/07/18 06:07:47;;;;;;;3.35;3.05;;;23.00;54.70;;;;;;4997221;28;20052;-66
2022/07/18 06:10:13;;;;;;;3.85;3.45;;;23.00;54.60;;;;;;5008592;28;20033;-66
2022/07/18 06:12:39;;;;;;;3.72;3.42;;;23.00;54.60;;;;;;5009641;28;20041;-66
2022/07/18 06:15:07;;;;;;;3.60;3.30;;;23.00;54.60;;;;;;5026405;28;20551;-66
2022/07/18 06:17:32;;;;;;;3.33;3.03;;;23.00;54.60;;;;;;5030420;28;20086;-66
2022/07/18 06:19:58;;;;;;;3.75;3.40;;;23.00;54.70;;;;;;5009715;28;20069;-67
2022/07/18 06:22:24;;;;;;;4.00;3.13;;;23.00;54.60;;;;;;5013073;28;20587;-66
2022/07/18 06:24:49;;;;;;;3.10;2.80;;;23.00;54.60;;;;;;5006254;28;20045;-66
2022/07/18 06:27:15;;;;;;;3.70;3.40;;;23.00;54.70;;;;;;5009969;28;20048;-66
2022/07/18 06:29:41;;;;;;;3.03;2.78;;;22.90;54.70;;;;;;5008365;28;20506;-66
2022/07/18 06:32:06;;;;;;;3.42;3.13;;;22.90;54.60;;;;;;5008257;28;20570;-66
2022/07/18 06:34:32;;;;;;;3.60;3.25;;;23.00;54.70;;;;;;5026929;28;20175;-66
2022/07/18 06:36:58;;;;;;;3.30;3.00;;;23.00;54.60;;;;;;5028565;28;20413;-64
2022/07/18 06:39:24;;;;;;;3.45;3.15;;;22.90;54.60;;;;;;5008641;28;20079;-64
2022/07/18 06:41:49;;;;;;;3.38;3.08;;;22.90;54.60;;;;;;5025489;28;20042;-65
2022/07/18 06:44:15;;;;;;;3.30;3.00;;;22.90;54.60;;;;;;5026372;28;20756;-65
2022/07/18 06:46:41;;;;;;;4.32;3.28;;;23.00;54.60;;;;;;5025342;28;20152;-65
2022/07/18 06:49:08;;;;;;;3.38;3.05;;;23.00;54.60;;;;;;5026011;28;20395;-65
2022/07/18 06:51:33;;;;;;;4.20;2.90;;;23.00;54.60;;;;;;4991610;28;20397;-64
2022/07/18 06:53:59;;;;;;;4.30;3.15;;;23.00;54.60;;;;;;5007782;28;20041;-64
2022/07/18 06:56:25;;;;;;;4.93;3.42;;;23.00;54.60;;;;;;5026042;28;20568;-64
2022/07/18 06:58:52;;;;;;;3.78;2.90;;;23.00;54.60;;;;;;5006277;28;20484;-64
2022/07/18 07:01:19;;;;;;;2.70;2.45;;;23.00;54.60;;;;;;5028126;28;20045;-65
2022/07/18 07:03:45;;;;;;;3.58;3.22;;;23.00;54.60;;;;;;5027461;28;20467;-65
2022/07/18 07:06:12;;;;;;;3.92;3.20;;;23.00;54.70;;;;;;5028805;28;20069;-65
2022/07/18 07:08:37;;;;;;;3.40;2.90;;;23.00;54.70;;;;;;5027425;28;20427;-66
2022/07/18 07:11:04;;;;;;;5.28;3.20;;;23.00;54.70;;;;;;4990403;28;20052;-66
2022/07/18 07:13:29;;;;;;;3.22;2.60;;;23.00;54.90;;;;;;5030091;28;20041;-66
2022/07/18 07:15:55;;;;;;;4.90;3.15;;;23.10;55.00;;;;;;4999196;28;20037;-66
2022/07/18 07:18:21;;;;;;;5.22;2.80;;;23.10;55.10;;;;;;5009682;28;20127;-69
2022/07/18 07:20:47;;;;;;;3.03;2.83;;;23.10;55.20;;;;;;5007763;28;20132;-71
2022/07/18 07:23:13;;;;;;;6.40;3.47;;;23.10;55.10;;;;;;5009875;28;20093;-71
2022/07/18 07:25:39;;;;;;;8.00;3.10;;;23.10;55.20;;;;;;5009431;28;20041;-70
2022/07/18 07:28:06;;;;;;;4.00;2.72;;;23.10;55.20;;;;;;5010299;28;20064;-68
2022/07/18 07:30:33;;;;;;;6.28;2.78;;;23.10;55.20;;;;;;5009793;28;20148;-65
2022/07/18 07:33:00;;;;;;;5.85;2.72;;;23.10;55.20;;;;;;5030059;28;20037;-65
2022/07/18 07:35:26;;;;;;;5.78;2.85;;;23.10;55.20;;;;;;5028812;28;20049;-65
2022/07/18 07:37:57;;;;;;;4.30;2.53;;;23.10;55.30;;;;;;5029708;28;20049;-66
2022/07/18 07:40:24;;;;;;;6.05;2.78;;;23.10;55.30;;;;;;5009667;28;20095;-63
2022/07/18 07:42:51;;;;;;;5.80;3.53;;;23.10;55.50;;;;;;5000708;28;20124;-64
2022/07/18 07:45:18;;;;;;;6.25;2.90;;;23.10;55.50;;;;;;5031760;28;20500;-67
2022/07/18 07:47:44;;;;;;;3.85;3.00;;;23.10;55.50;;;;;;5031006;28;20057;-63
2022/07/18 07:50:11;;;;;;;5.68;2.83;;;23.10;55.60;;;;;;5031738;28;20501;-67
2022/07/18 07:52:38;;;;;;;4.20;2.90;;;23.10;55.70;;;;;;5013239;28;20406;-66
2022/07/18 07:55:07;;;;;;;11.10;3.05;;;23.20;55.90;;;;;;5034215;28;20034;-66
2022/07/18 07:57:35;;;;;;;5.70;2.63;;;23.20;55.90;;;;;;5031197;28;20448;-65
2022/07/18 08:00:03;;;;;;;3.53;2.25;;;23.20;56.00;;;;;;5030127;28;20120;-65
2022/07/18 08:02:29;;;;;;;5.47;2.90;;;23.20;56.00;;;;;;5029531;28;20607;-64
2022/07/18 08:04:54;;;;;;;5.15;2.58;;;23.20;56.20;;;;;;5028688;28;20040;-65
2022/07/18 08:07:20;;;;;;;6.43;2.90;;;23.20;56.20;;;;;;5008748;28;20060;-66
2022/07/18 08:09:46;;;;;;;7.00;3.25;;;23.20;56.20;;;;;;5028146;28;20056;-66
2022/07/18 08:12:12;;;;;;;11.90;3.35;;;23.20;56.00;;;;;;5011005;28;20497;-64
2022/07/18 08:14:40;;;;;;;8.05;3.08;;;23.10;55.90;;;;;;5032298;28;20524;-66
2022/07/18 08:17:06;;;;;;;5.60;2.80;;;23.20;55.90;;;;;;5014889;28;20077;-67
2022/07/18 08:19:31;;;;;;;5.65;2.78;;;23.20;55.80;;;;;;5010112;28;20045;-66
2022/07/18 08:21:57;;;;;;;8.82;2.90;;;23.10;55.70;;;;;;5030390;28;20039;-65
2022/07/18 08:24:23;;;;;;;10.82;2.67;;;23.20;55.80;;;;;;5031740;28;20083;-65
2022/07/18 08:26:48;;;;;;;7.20;3.20;;;23.10;55.70;;;;;;5009018;28;20077;-66
2022/07/18 08:29:14;;;;;;;6.10;2.80;;;23.10;55.60;;;;;;5011886;28;20503;-66
2022/07/18 08:31:40;;;;;;;8.32;3.20;;;23.10;55.60;;;;;;5014705;28;20041;-67
2022/07/18 08:34:06;;;;;;;7.78;2.72;;;23.10;55.50;;;;;;5030636;28;20037;-66
2022/07/18 08:36:31;;;;;;;8.93;2.85;;;23.10;55.50;;;;;;5019946;28;20489;-66
2022/07/18 08:38:57;;;;;;;5.22;2.97;;;23.10;55.50;;;;;;5009163;28;20601;-66
2022/07/18 08:41:23;;;;;;;6.03;2.85;;;23.10;55.30;;;;;;5032232;28;20029;-66
2022/07/18 08:43:50;;;;;;;5.65;2.63;;;23.10;55.30;;;;;;5032565;28;20073;-67
2022/07/18 08:46:21;;;;;;;3.67;2.55;;;23.10;55.30;;;;;;4996782;28;20076;-66
2022/07/18 08:48:51;;;;;;;5.30;2.83;;;23.10;55.30;;;;;;5032320;28;20093;-66
2022/07/18 08:51:18;;;;;;;4.68;2.78;;;23.10;55.30;;;;;;5028499;28;20049;-65
2022/07/18 08:53:47;;;;;;;5.60;2.83;;;23.10;55.20;;;;;;5027534;28;20124;-65
2022/07/18 08:56:12;;;;;;;6.90;2.65;;;23.10;55.50;;;;;;5029660;28;20381;-65
2022/07/18 08:58:38;;;;;;;4.22;2.70;;;23.10;56.00;;;;;;5029731;28;20045;-65
2022/07/18 09:01:04;;;;;;;5.85;2.90;;;23.10;56.30;;;;;;5030070;28;20029;-66
2022/07/18 09:03:30;;;;;;;7.28;2.90;;;23.10;57.10;;;;;;5010371;28;20049;-65
2022/07/18 09:06:22;;;;;;;4.45;2.97;;;23.10;57.80;;;;;;5010655;28;20029;-65
2022/07/18 09:08:59;;;;;;;8.10;2.30;;;23.20;57.70;;;;;;5003074;28;20049;-66
2022/07/18 09:11:25;;;;;;;5.13;2.42;;;23.20;57.70;;;;;;5030396;28;20037;-65
2022/07/18 09:13:51;;;;;;;4.88;2.33;;;23.20;57.90;;;;;;5031308;28;20679;-66
2022/07/18 09:16:17;;;;;;;5.07;2.78;;;23.20;58.00;;;;;;5014244;28;20458;-64
2022/07/18 09:18:48;;;;;;;7.28;2.97;;;23.20;58.20;;;;;;5030110;28;20509;-64
2022/07/18 09:21:18;;;;;;;7.43;2.80;;;23.20;58.40;;;;;;5030205;28;20510;-63
2022/07/18 09:23:49;;;;;;;4.10;2.63;;;23.20;58.50;;;;;;5010144;28;20049;-64
2022/07/18 09:26:33;;;;;;;5.13;2.60;;;23.30;58.60;;;;;;5027227;28;20068;-63
2022/07/18 09:28:58;;;;;;;6.18;2.70;;;23.30;58.50;;;;;;5009966;28;20077;-64
2022/07/18 09:31:27;;;;;;;6.60;2.42;;;23.30;58.50;;;;;;5028592;28;20107;-65
2022/07/18 09:33:53;;;;;;;4.78;2.70;;;23.30;58.50;;;;;;5027888;28;20051;-65
2022/07/18 09:36:20;;;;;;;12.80;2.72;;;23.30;59.30;;;;;;5010487;28;20168;-65
2022/07/18 09:38:45;;;;;;;6.30;2.60;;;23.30;58.50;;;;;;5027990;28;20049;-65
2022/07/18 09:41:11;;;;;;;5.53;2.30;;;23.30;58.40;;;;;;5026133;28;20048;-65
2022/07/18 09:43:38;;;;;;;7.32;2.47;;;23.30;58.40;;;;;;4993533;28;20459;-65
2022/07/18 09:46:06;;;;;;;4.32;2.60;;;23.30;58.30;;;;;;5027258;28;20835;-65
2022/07/18 09:48:32;;;;;;;7.55;2.90;;;23.30;58.20;;;;;;5000127;28;20056;-63
2022/07/18 09:50:59;;;;;;;5.97;2.53;;;23.30;58.20;;;;;;5009166;28;20479;-65
2022/07/18 09:53:30;;;;;;;3.35;2.47;;;23.40;58.20;;;;;;4990065;28;20049;-65
2022/07/18 09:55:58;;;;;;;5.20;2.80;;;23.30;58.30;;;;;;4988837;28;20041;-65
2022/07/18 09:58:26;;;;;;;6.18;2.53;;;23.30;58.20;;;;;;5007865;28;20042;-64
2022/07/18 10:00:54;;;;;;;5.93;2.47;;;23.30;58.20;;;;;;5006450;28;20118;-65
2022/07/18 10:03:21;;;;;;;8.20;2.50;;;23.30;57.90;;;;;;5005183;28;20045;-65
2022/07/18 10:05:48;;;;;;;8.80;2.63;;;23.30;57.90;;;;;;5001371;28;20108;-65
2022/07/18 10:08:20;;;;;;;3.30;2.28;;;23.30;57.80;;;;;;5011317;28;20046;-65
2022/07/18 10:10:47;;;;;;;3.53;2.30;;;23.30;57.70;;;;;;5005384;28;20119;-64
2022/07/18 10:13:14;;;;;;;5.03;2.45;;;23.30;57.60;;;;;;4995335;28;20055;-65
2022/07/18 10:15:41;;;;;;;3.40;2.45;;;23.30;57.50;;;;;;4989130;28;20128;-63
2022/07/18 10:18:10;;;;;;;3.00;2.17;;;23.30;57.40;;;;;;5007746;28;20128;-64
2022/07/18 10:20:37;;;;;;;4.05;2.35;;;23.30;57.30;;;;;;5007107;28;20033;-65
2022/07/18 10:23:24;;;;;;;3.22;1.98;;;23.30;57.20;;;;;;5006904;28;20069;-64
2022/07/18 10:26:15;;;;;;;4.53;2.50;;;23.30;56.90;;;;;;5005521;28;20041;-64
2022/07/18 10:29:13;;;;;;;2.45;1.92;;;23.30;56.80;;;;;;5006684;28;20050;-64
2022/07/18 10:31:58;;;;;;;4.18;2.30;;;23.30;57.10;;;;;;4991780;28;20138;-64
2022/07/18 10:34:31;;;;;;;3.35;1.77;;;23.30;57.20;;;;;;5004682;28;20037;-64
2022/07/18 10:37:01;;;;;;;3.15;2.10;;;23.20;57.50;;;;;;5002481;28;20124;-63
2022/07/18 10:39:37;;;;;;;4.70;1.80;;;23.30;57.30;;;;;;5005944;28;20038;-63
2022/07/18 10:42:03;;;;;;;3.60;2.08;;;23.30;57.10;;;;;;5003766;28;20347;-63
2022/07/18 10:44:31;;;;;;;3.63;2.03;;;23.30;56.90;;;;;;5007629;28;20053;-63
2022/07/18 10:47:03;;;;;;;5.82;2.75;;;23.30;56.70;;;;;;5007396;28;20120;-62
2022/07/18 10:49:47;;;;;;;3.30;2.22;;;23.30;56.60;;;;;;5027721;28;20083;-63
2022/07/18 10:52:39;;;;;;;4.82;2.30;;;23.30;56.50;;;;;;5026964;28;20045;-63
2022/07/18 10:55:05;;;;;;;3.83;1.98;;;23.30;56.40;;;;;;4992072;28;20049;-63
2022/07/18 10:57:42;;;;;;;5.60;2.10;;;23.30;56.50;;;;;;5008803;28;20041;-62
2022/07/18 11:00:13;;;;;;;4.20;2.17;;;23.30;56.40;;;;;;5026829;28;20041;-63
2022/07/18 11:02:43;;;;;;;;;;;23.30;56.50;;;;;;5028940;28;20045;-63
2022/07/18 11:05:23;;;;;;;3.13;2.03;;;23.30;56.40;;;;;;5028581;28;19962;-63
2022/07/18 11:08:01;;;;;;;3.17;1.85;;;23.30;56.60;;;;;;5007475;28;20049;-63
2022/07/18 11:10:44;;;;;;;4.47;2.05;;;23.30;56.60;;;;;;4994231;28;20052;-63
2022/07/18 11:13:31;;;;;;;2.92;2.10;;;23.30;56.50;;;;;;4994154;28;20044;-63
2022/07/18 11:16:17;;;;;;;3.33;1.80;;;23.30;56.50;;;;;;5007982;28;20053;-63
2022/07/18 11:18:43;;;;;;;3.95;1.95;;;23.30;56.50;;;;;;5024151;28;20095;-62
2022/07/18 11:21:22;;;;;;;3.75;2.05;;;23.30;56.60;;;;;;5009573;28;20037;-63
2022/07/18 11:23:50;;;;;;;4.15;1.77;;;23.30;56.60;;;;;;5026880;28;20164;-63
2022/07/18 11:26:18;;;;;;;2.65;2.03;;;23.30;56.70;;;;;;5028920;28;20044;-62
2022/07/18 11:28:45;;;;;;;6.32;2.20;;;23.30;56.80;;;;;;5004641;28;20084;-63
2022/07/18 11:31:12;;;;;;;3.90;2.10;;;23.30;56.80;;;;;;5027518;28;20042;-63
2022/07/18 11:33:41;;;;;;;4.00;1.85;;;23.30;56.70;;;;;;5009761;28;20827;-63
2022/07/18 11:36:08;;;;;;;6.78;2.25;;;23.40;56.80;;;;;;5029034;28;20041;-63
2022/07/18 11:38:35;;;;;;;4.45;2.08;;;23.40;56.70;;;;;;5029635;28;20076;-63
2022/07/18 11:41:02;;;;;;;3.88;2.10;;;23.30;56.40;;;;;;5028728;28;20067;-64
2022/07/18 11:43:28;;;;;;;8.38;1.88;;;23.40;56.50;;;;;;5027360;28;20401;-63
2022/07/18 11:46:09;;;;;;;5.75;2.00;;;23.40;56.40;;;;;;5027943;28;20039;-63
2022/07/18 11:48:36;;;;;;;3.13;2.05;;;23.40;56.40;;;;;;5031204;28;20479;-63
2022/07/18 11:51:08;;;;;;;5.70;2.55;;;23.40;56.30;;;;;;5013193;28;20048;-63
2022/07/18 11:53:34;;;;;;;2.97;2.10;;;23.40;56.00;;;;;;5008405;28;20132;-63
2022/07/18 11:56:04;;;;;;;2.85;2.15;;;23.30;55.80;;;;;;5030808;28;20094;-63
2022/07/18 11:58:38;;;;;;;4.43;2.33;;;23.30;55.70;;;;;;5031061;28;20049;-63
2022/07/18 12:01:05;;;;;;;4.28;2.28;;;23.40;55.50;;;;;;5032729;28;20052;-63
2022/07/18 12:03:33;;;;;;;3.17;2.00;;;23.40;55.40;;;;;;5012758;28;20104;-63
2022/07/18 12:06:09;;;;;;;3.55;2.10;;;23.40;55.30;;;;;;5012319;28;20045;-61
2022/07/18 12:08:39;;;;;;;5.47;2.53;;;23.30;55.20;;;;;;5012751;28;20055;-63
2022/07/18 12:11:06;;;;;;;3.13;1.80;;;23.30;55.20;;;;;;5031432;28;20047;-63
2022/07/18 12:13:56;;;;;;;4.30;2.53;;;23.40;55.10;;;;;;5028440;28;20072;-63
2022/07/18 12:16:52;;;;;;;3.10;2.35;;;23.40;55.10;;;;;;5030386;28;20839;-62
2022/07/18 12:19:24;;;;;;;3.88;1.90;;;23.40;55.20;;;;;;4999062;28;20228;-62
2022/07/18 12:21:57;;;;;;;3.63;1.90;;;23.30;55.10;;;;;;5032209;28;20128;-63
2022/07/18 12:24:26;;;;;;;2.65;2.13;;;23.40;55.00;;;;;;5000256;28;20185;-63
2022/07/18 12:27:16;;;;;;;3.42;2.28;;;23.40;54.90;;;;;;5014903;28;20135;-63
2022/07/18 12:30:13;;;;;;;3.45;2.30;;;23.40;54.70;;;;;;5013179;28;20049;-63
2022/07/18 12:32:41;;;;;;;6.40;2.20;;;23.40;55.00;;;;;;4997802;28;20052;-63
2022/07/18 12:35:10;;;;;;;3.63;2.25;;;23.40;54.70;;;;;;5030921;28;20048;-63
2022/07/18 12:37:36;;;;;;;5.57;2.20;;;23.40;54.60;;;;;;5012497;28;20488;-64
2022/07/18 12:40:10;;;;;;;2.90;1.85;;;23.40;54.70;;;;;;5031456;28;20049;-63
2022/07/18 12:42:41;;;;;;;4.35;2.30;;;23.40;54.50;;;;;;4995811;28;20041;-63
2022/07/18 12:45:09;;;;;;;4.88;2.10;;;23.40;54.50;;;;;;5013624;28;20083;-63
2022/07/18 12:47:35;;;;;;;2.97;2.00;;;23.40;54.50;;;;;;5030701;28;20045;-63
2022/07/18 12:50:01;;;;;;;4.80;2.75;;;23.40;54.50;;;;;;5031097;28;20045;-63
2022/07/18 12:52:27;;;;;;;3.75;2.53;;;23.40;54.50;;;;;;4993820;28;21167;-63
2022/07/18 12:54:52;;;;;;;4.00;2.28;;;23.40;54.50;;;;;;5028385;28;20042;-63